sensor_id;sensor_type;location;lat;lon;timestamp;P1;durP1;ratioP1;P2;durP2;ratioP2
68438;SDS011;55421;51.600;5.718;2023-06-10T00:01:56;8.70;;;6.80;;
68438;SDS011;55421;51.600;5.718;2023-06-10T00:04:27;10.50;;;7.60;;
68438;SDS011;55421;51.600;5.718;2023-06-10T00:06:53;7.90;;;7.10;;
68438;SDS011;55421;51.600;5.718;2023-06-10T00:09:20;8.50;;;7.60;;
68438;SDS011;55421;51.600;5.718;2023-06-10T00:11:47;8.10;;;7.30;;
68438;SDS011;55421;51.600;5.718;2023-06-10T00:14:14;8.90;;;7.90;;
68438;SDS011;55421;51.600;5.718;2023-06-10T00:16:40;8.20;;;7.40;;
68438;SDS011;55421;51.600;5.718;2023-06-10T00:19:11;8.50;;;7.70;;
68438;SDS011;55421;51.600;5.718;2023-06-10T00:21:39;8.50;;;7.60;;
68438;SDS011;55421;51.600;5.718;2023-06-10T00:24:07;8.60;;;7.50;;
68438;SDS011;55421;51.600;5.718;2023-06-10T00:26:39;8.80;;;7.70;;
68438;SDS011;55421;51.600;5.718;2023-06-10T00:29:07;8.20;;;7.30;;
68438;SDS011;55421;51.600;5.718;2023-06-10T00:31:35;8.80;;;7.90;;
68438;SDS011;55421;51.600;5.718;2023-06-10T00:34:01;10.90;;;7.80;;
68438;SDS011;55421;51.600;5.718;2023-06-10T00:36:28;8.90;;;7.80;;
68438;SDS011;55421;51.600;5.718;2023-06-10T00:38:57;9.50;;;8.50;;
68438;SDS011;55421;51.600;5.718;2023-06-10T00:41:23;9.00;;;8.10;;
68438;SDS011;55421;51.600;5.718;2023-06-10T00:43:50;9.10;;;8.20;;
68438;SDS011;55421;51.600;5.718;2023-06-10T00:46:17;9.10;;;7.70;;
68438;SDS011;55421;51.600;5.718;2023-06-10T00:48:45;10.80;;;8.50;;
68438;SDS011;55421;51.600;5.718;2023-06-10T00:51:12;9.10;;;8.20;;
68438;SDS011;55421;51.600;5.718;2023-06-10T00:53:40;10.20;;;8.60;;
68438;SDS011;55421;51.600;5.718;2023-06-10T00:56:08;9.60;;;8.30;;
68438;SDS011;55421;51.600;5.718;2023-06-10T00:58:35;8.80;;;8.10;;
68438;SDS011;55421;51.600;5.718;2023-06-10T01:01:03;10.00;;;8.50;;
68438;SDS011;55421;51.600;5.718;2023-06-10T01:03:30;10.50;;;8.80;;
68438;SDS011;55421;51.600;5.718;2023-06-10T01:06:09;10.50;;;8.20;;
68438;SDS011;55421;51.600;5.718;2023-06-10T01:12:19;13.60;;;9.10;;
68438;SDS011;55421;51.600;5.718;2023-06-10T01:15:08;15.30;;;10.30;;
68438;SDS011;55421;51.600;5.718;2023-06-10T01:17:57;12.00;;;9.80;;
68438;SDS011;55421;51.600;5.718;2023-06-10T01:20:31;11.80;;;9.70;;
68438;SDS011;55421;51.600;5.718;2023-06-10T01:22:59;13.80;;;9.80;;
68438;SDS011;55421;51.600;5.718;2023-06-10T01:25:28;13.40;;;9.70;;
68438;SDS011;55421;51.600;5.718;2023-06-10T01:28:12;12.30;;;10.40;;
68438;SDS011;55421;51.600;5.718;2023-06-10T01:31:09;15.70;;;10.10;;
68438;SDS011;55421;51.600;5.718;2023-06-10T01:33:46;11.30;;;10.10;;
68438;SDS011;55421;51.600;5.718;2023-06-10T01:36:17;12.40;;;10.90;;
68438;SDS011;55421;51.600;5.718;2023-06-10T01:38:46;11.60;;;10.40;;
68438;SDS011;55421;51.600;5.718;2023-06-10T01:41:16;10.40;;;8.70;;
68438;SDS011;55421;51.600;5.718;2023-06-10T01:43:45;12.80;;;10.70;;
68438;SDS011;55421;51.600;5.718;2023-06-10T01:46:12;10.80;;;9.70;;
68438;SDS011;55421;51.600;5.718;2023-06-10T01:48:41;13.60;;;9.20;;
68438;SDS011;55421;51.600;5.718;2023-06-10T01:51:08;10.30;;;9.30;;
68438;SDS011;55421;51.600;5.718;2023-06-10T01:53:35;10.90;;;9.90;;
68438;SDS011;55421;51.600;5.718;2023-06-10T01:56:02;10.60;;;9.60;;
68438;SDS011;55421;51.600;5.718;2023-06-10T01:58:29;11.20;;;10.10;;
68438;SDS011;55421;51.600;5.718;2023-06-10T02:00:55;15.30;;;9.60;;
68438;SDS011;55421;51.600;5.718;2023-06-10T02:03:22;12.00;;;9.10;;
68438;SDS011;55421;51.600;5.718;2023-06-10T02:05:49;11.50;;;9.40;;
68438;SDS011;55421;51.600;5.718;2023-06-10T02:08:15;15.90;;;9.10;;
68438;SDS011;55421;51.600;5.718;2023-06-10T02:10:42;10.90;;;9.80;;
68438;SDS011;55421;51.600;5.718;2023-06-10T02:13:08;13.00;;;9.90;;
68438;SDS011;55421;51.600;5.718;2023-06-10T02:15:35;9.70;;;8.80;;
68438;SDS011;55421;51.600;5.718;2023-06-10T02:18:02;12.30;;;9.70;;
68438;SDS011;55421;51.600;5.718;2023-06-10T02:20:28;10.50;;;9.40;;
68438;SDS011;55421;51.600;5.718;2023-06-10T02:22:55;12.50;;;10.30;;
68438;SDS011;55421;51.600;5.718;2023-06-10T02:25:21;15.50;;;10.20;;
68438;SDS011;55421;51.600;5.718;2023-06-10T02:27:48;11.10;;;9.90;;
68438;SDS011;55421;51.600;5.718;2023-06-10T02:30:14;16.50;;;10.30;;
68438;SDS011;55421;51.600;5.718;2023-06-10T02:32:41;13.30;;;9.90;;
68438;SDS011;55421;51.600;5.718;2023-06-10T02:35:08;15.20;;;10.50;;
68438;SDS011;55421;51.600;5.718;2023-06-10T02:37:38;12.10;;;10.90;;
68438;SDS011;55421;51.600;5.718;2023-06-10T02:40:06;15.50;;;11.40;;
68438;SDS011;55421;51.600;5.718;2023-06-10T02:42:33;12.70;;;11.30;;
68438;SDS011;55421;51.600;5.718;2023-06-10T02:45:00;11.90;;;10.70;;
68438;SDS011;55421;51.600;5.718;2023-06-10T02:47:27;13.60;;;11.60;;
68438;SDS011;55421;51.600;5.718;2023-06-10T02:49:53;13.20;;;11.60;;
68438;SDS011;55421;51.600;5.718;2023-06-10T02:52:20;12.80;;;11.20;;
68438;SDS011;55421;51.600;5.718;2023-06-10T02:54:47;15.20;;;10.90;;
68438;SDS011;55421;51.600;5.718;2023-06-10T02:57:13;15.20;;;12.00;;
68438;SDS011;55421;51.600;5.718;2023-06-10T02:59:40;13.90;;;11.50;;
68438;SDS011;55421;51.600;5.718;2023-06-10T03:02:07;13.40;;;12.10;;
68438;SDS011;55421;51.600;5.718;2023-06-10T03:04:33;14.00;;;11.40;;
68438;SDS011;55421;51.600;5.718;2023-06-10T03:07:00;14.30;;;11.40;;
68438;SDS011;55421;51.600;5.718;2023-06-10T03:09:29;12.80;;;11.50;;
68438;SDS011;55421;51.600;5.718;2023-06-10T03:11:56;14.30;;;12.10;;
68438;SDS011;55421;51.600;5.718;2023-06-10T03:14:23;13.50;;;11.90;;
68438;SDS011;55421;51.600;5.718;2023-06-10T03:16:51;13.50;;;12.00;;
68438;SDS011;55421;51.600;5.718;2023-06-10T03:19:17;14.50;;;11.70;;
68438;SDS011;55421;51.600;5.718;2023-06-10T03:21:44;13.80;;;11.60;;
68438;SDS011;55421;51.600;5.718;2023-06-10T03:24:12;12.70;;;11.50;;
68438;SDS011;55421;51.600;5.718;2023-06-10T03:26:39;12.00;;;10.90;;
68438;SDS011;55421;51.600;5.718;2023-06-10T03:29:05;13.10;;;11.50;;
68438;SDS011;55421;51.600;5.718;2023-06-10T03:31:32;15.40;;;11.60;;
68438;SDS011;55421;51.600;5.718;2023-06-10T03:33:58;14.40;;;11.50;;
68438;SDS011;55421;51.600;5.718;2023-06-10T03:36:25;13.70;;;11.40;;
68438;SDS011;55421;51.600;5.718;2023-06-10T03:38:55;12.80;;;11.40;;
68438;SDS011;55421;51.600;5.718;2023-06-10T03:41:23;13.90;;;11.40;;
68438;SDS011;55421;51.600;5.718;2023-06-10T03:43:49;12.50;;;11.10;;
68438;SDS011;55421;51.600;5.718;2023-06-10T03:46:16;12.70;;;11.30;;
68438;SDS011;55421;51.600;5.718;2023-06-10T03:48:43;18.20;;;12.60;;
68438;SDS011;55421;51.600;5.718;2023-06-10T03:51:10;14.90;;;11.20;;
68438;SDS011;55421;51.600;5.718;2023-06-10T03:53:36;17.00;;;11.30;;
68438;SDS011;55421;51.600;5.718;2023-06-10T03:56:03;12.40;;;11.10;;
68438;SDS011;55421;51.600;5.718;2023-06-10T03:58:30;13.90;;;11.40;;
68438;SDS011;55421;51.600;5.718;2023-06-10T04:00:57;14.50;;;11.70;;
68438;SDS011;55421;51.600;5.718;2023-06-10T04:03:24;12.10;;;10.70;;
68438;SDS011;55421;51.600;5.718;2023-06-10T04:05:50;12.60;;;10.90;;
68438;SDS011;55421;51.600;5.718;2023-06-10T04:08:17;11.70;;;10.50;;
68438;SDS011;55421;51.600;5.718;2023-06-10T04:10:44;13.00;;;11.20;;
68438;SDS011;55421;51.600;5.718;2023-06-10T04:13:10;11.70;;;10.50;;
68438;SDS011;55421;51.600;5.718;2023-06-10T04:15:37;11.70;;;10.40;;
68438;SDS011;55421;51.600;5.718;2023-06-10T04:18:04;11.60;;;10.40;;
68438;SDS011;55421;51.600;5.718;2023-06-10T04:20:31;14.50;;;10.60;;
68438;SDS011;55421;51.600;5.718;2023-06-10T04:22:57;14.10;;;10.00;;
68438;SDS011;55421;51.600;5.718;2023-06-10T04:25:26;11.70;;;9.50;;
68438;SDS011;55421;51.600;5.718;2023-06-10T04:27:54;10.70;;;9.50;;
68438;SDS011;55421;51.600;5.718;2023-06-10T04:30:21;12.90;;;10.70;;
68438;SDS011;55421;51.600;5.718;2023-06-10T04:32:48;10.10;;;9.10;;
68438;SDS011;55421;51.600;5.718;2023-06-10T04:35:15;11.90;;;9.60;;
68438;SDS011;55421;51.600;5.718;2023-06-10T04:37:42;10.30;;;8.60;;
68438;SDS011;55421;51.600;5.718;2023-06-10T04:40:09;11.40;;;9.90;;
68438;SDS011;55421;51.600;5.718;2023-06-10T04:42:36;10.90;;;9.20;;
68438;SDS011;55421;51.600;5.718;2023-06-10T04:45:03;10.30;;;9.30;;
68438;SDS011;55421;51.600;5.718;2023-06-10T04:47:30;10.50;;;8.70;;
68438;SDS011;55421;51.600;5.718;2023-06-10T04:50:00;12.60;;;9.20;;
68438;SDS011;55421;51.600;5.718;2023-06-10T04:52:27;11.40;;;8.90;;
68438;SDS011;55421;51.600;5.718;2023-06-10T04:54:54;11.60;;;9.40;;
68438;SDS011;55421;51.600;5.718;2023-06-10T04:57:21;13.20;;;9.50;;
68438;SDS011;55421;51.600;5.718;2023-06-10T04:59:48;10.80;;;8.50;;
68438;SDS011;55421;51.600;5.718;2023-06-10T05:02:14;10.80;;;9.40;;
68438;SDS011;55421;51.600;5.718;2023-06-10T05:04:41;12.30;;;8.30;;
68438;SDS011;55421;51.600;5.718;2023-06-10T05:07:07;10.80;;;8.60;;
68438;SDS011;55421;51.600;5.718;2023-06-10T05:09:34;9.30;;;8.30;;
68438;SDS011;55421;51.600;5.718;2023-06-10T05:12:01;14.70;;;9.00;;
68438;SDS011;55421;51.600;5.718;2023-06-10T05:14:28;10.60;;;8.80;;
68438;SDS011;55421;51.600;5.718;2023-06-10T05:16:54;10.60;;;9.10;;
68438;SDS011;55421;51.600;5.718;2023-06-10T05:19:21;11.10;;;8.70;;
68438;SDS011;55421;51.600;5.718;2023-06-10T05:21:48;10.40;;;8.50;;
68438;SDS011;55421;51.600;5.718;2023-06-10T05:24:14;9.40;;;7.70;;
68438;SDS011;55421;51.600;5.718;2023-06-10T05:26:41;8.70;;;7.60;;
68438;SDS011;55421;51.600;5.718;2023-06-10T05:29:08;9.30;;;7.90;;
68438;SDS011;55421;51.600;5.718;2023-06-10T05:31:35;10.00;;;8.20;;
68438;SDS011;55421;51.600;5.718;2023-06-10T05:34:02;8.80;;;7.90;;
68438;SDS011;55421;51.600;5.718;2023-06-10T05:36:28;9.90;;;7.90;;
68438;SDS011;55421;51.600;5.718;2023-06-10T05:38:55;9.10;;;8.10;;
68438;SDS011;55421;51.600;5.718;2023-06-10T05:41:22;9.70;;;8.30;;
68438;SDS011;55421;51.600;5.718;2023-06-10T05:43:48;12.60;;;7.30;;
68438;SDS011;55421;51.600;5.718;2023-06-10T05:46:15;11.80;;;8.60;;
68438;SDS011;55421;51.600;5.718;2023-06-10T05:48:42;10.60;;;8.60;;
68438;SDS011;55421;51.600;5.718;2023-06-10T05:51:08;9.50;;;8.10;;
68438;SDS011;55421;51.600;5.718;2023-06-10T05:53:36;11.50;;;8.40;;
68438;SDS011;55421;51.600;5.718;2023-06-10T05:56:03;9.90;;;8.20;;
68438;SDS011;55421;51.600;5.718;2023-06-10T05:58:30;12.10;;;7.80;;
68438;SDS011;55421;51.600;5.718;2023-06-10T06:00:56;12.50;;;8.30;;
68438;SDS011;55421;51.600;5.718;2023-06-10T06:03:23;9.80;;;7.90;;
68438;SDS011;55421;51.600;5.718;2023-06-10T06:05:49;9.00;;;8.00;;
68438;SDS011;55421;51.600;5.718;2023-06-10T06:08:16;13.20;;;8.20;;
68438;SDS011;55421;51.600;5.718;2023-06-10T06:10:45;13.10;;;8.40;;
68438;SDS011;55421;51.600;5.718;2023-06-10T06:13:13;11.80;;;7.60;;
68438;SDS011;55421;51.600;5.718;2023-06-10T06:15:40;10.80;;;7.50;;
68438;SDS011;55421;51.600;5.718;2023-06-10T06:18:06;8.80;;;6.80;;
68438;SDS011;55421;51.600;5.718;2023-06-10T06:20:33;8.50;;;6.90;;
68438;SDS011;55421;51.600;5.718;2023-06-10T06:22:59;10.90;;;7.20;;
68438;SDS011;55421;51.600;5.718;2023-06-10T06:25:26;9.00;;;6.20;;
68438;SDS011;55421;51.600;5.718;2023-06-10T06:27:52;9.80;;;7.60;;
68438;SDS011;55421;51.600;5.718;2023-06-10T06:30:19;9.60;;;6.90;;
68438;SDS011;55421;51.600;5.718;2023-06-10T06:32:46;8.90;;;7.30;;
68438;SDS011;55421;51.600;5.718;2023-06-10T06:35:12;10.70;;;6.60;;
68438;SDS011;55421;51.600;5.718;2023-06-10T06:37:39;8.30;;;7.00;;
68438;SDS011;55421;51.600;5.718;2023-06-10T06:40:06;9.90;;;7.30;;
68438;SDS011;55421;51.600;5.718;2023-06-10T06:42:33;8.50;;;6.70;;
68438;SDS011;55421;51.600;5.718;2023-06-10T06:45:00;10.50;;;7.40;;
68438;SDS011;55421;51.600;5.718;2023-06-10T06:47:26;9.00;;;6.00;;
68438;SDS011;55421;51.600;5.718;2023-06-10T06:49:53;11.50;;;6.90;;
68438;SDS011;55421;51.600;5.718;2023-06-10T06:52:19;9.90;;;7.00;;
68438;SDS011;55421;51.600;5.718;2023-06-10T06:54:46;8.50;;;6.50;;
68438;SDS011;55421;51.600;5.718;2023-06-10T06:57:12;10.30;;;7.10;;
68438;SDS011;55421;51.600;5.718;2023-06-10T06:59:39;8.60;;;6.60;;
68438;SDS011;55421;51.600;5.718;2023-06-10T07:02:06;8.80;;;6.40;;
68438;SDS011;55421;51.600;5.718;2023-06-10T07:04:32;9.40;;;6.60;;
68438;SDS011;55421;51.600;5.718;2023-06-10T07:06:59;9.20;;;7.10;;
68438;SDS011;55421;51.600;5.718;2023-06-10T07:09:25;8.50;;;6.90;;
68438;SDS011;55421;51.600;5.718;2023-06-10T07:11:52;10.70;;;7.80;;
68438;SDS011;55421;51.600;5.718;2023-06-10T07:14:18;9.40;;;6.50;;
68438;SDS011;55421;51.600;5.718;2023-06-10T07:16:45;7.20;;;6.00;;
68438;SDS011;55421;51.600;5.718;2023-06-10T07:19:12;11.80;;;7.70;;
68438;SDS011;55421;51.600;5.718;2023-06-10T07:21:38;8.30;;;6.10;;
68438;SDS011;55421;51.600;5.718;2023-06-10T07:24:06;7.20;;;6.20;;
68438;SDS011;55421;51.600;5.718;2023-06-10T07:26:32;9.50;;;6.20;;
68438;SDS011;55421;51.600;5.718;2023-06-10T07:28:59;7.90;;;6.40;;
68438;SDS011;55421;51.600;5.718;2023-06-10T07:31:26;8.30;;;6.20;;
68438;SDS011;55421;51.600;5.718;2023-06-10T07:33:52;11.80;;;6.60;;
68438;SDS011;55421;51.600;5.718;2023-06-10T07:36:19;8.10;;;6.60;;
68438;SDS011;55421;51.600;5.718;2023-06-10T07:38:45;7.90;;;5.80;;
68438;SDS011;55421;51.600;5.718;2023-06-10T07:41:12;8.90;;;5.90;;
68438;SDS011;55421;51.600;5.718;2023-06-10T07:43:38;7.80;;;6.40;;
68438;SDS011;55421;51.600;5.718;2023-06-10T07:46:05;7.70;;;6.10;;
68438;SDS011;55421;51.600;5.718;2023-06-10T07:48:32;9.60;;;6.30;;
68438;SDS011;55421;51.600;5.718;2023-06-10T07:50:58;8.40;;;5.90;;
68438;SDS011;55421;51.600;5.718;2023-06-10T07:53:25;6.70;;;5.40;;
68438;SDS011;55421;51.600;5.718;2023-06-10T07:55:51;7.00;;;6.00;;
68438;SDS011;55421;51.600;5.718;2023-06-10T07:58:18;8.70;;;6.00;;
68438;SDS011;55421;51.600;5.718;2023-06-10T08:00:44;7.00;;;5.70;;
68438;SDS011;55421;51.600;5.718;2023-06-10T08:03:11;7.50;;;5.30;;
68438;SDS011;55421;51.600;5.718;2023-06-10T08:05:39;9.90;;;6.00;;
68438;SDS011;55421;51.600;5.718;2023-06-10T08:08:06;10.90;;;5.90;;
68438;SDS011;55421;51.600;5.718;2023-06-10T08:10:32;6.70;;;5.30;;
68438;SDS011;55421;51.600;5.718;2023-06-10T08:12:59;9.60;;;5.40;;
68438;SDS011;55421;51.600;5.718;2023-06-10T08:15:25;9.10;;;5.50;;
68438;SDS011;55421;51.600;5.718;2023-06-10T08:17:52;5.90;;;5.20;;
68438;SDS011;55421;51.600;5.718;2023-06-10T08:20:18;6.20;;;5.30;;
68438;SDS011;55421;51.600;5.718;2023-06-10T08:22:45;8.10;;;5.00;;
68438;SDS011;55421;51.600;5.718;2023-06-10T08:25:11;6.30;;;4.90;;
68438;SDS011;55421;51.600;5.718;2023-06-10T08:27:38;6.70;;;5.40;;
68438;SDS011;55421;51.600;5.718;2023-06-10T08:30:05;7.00;;;5.00;;
68438;SDS011;55421;51.600;5.718;2023-06-10T08:32:32;7.90;;;5.30;;
68438;SDS011;55421;51.600;5.718;2023-06-10T08:34:58;10.40;;;5.40;;
68438;SDS011;55421;51.600;5.718;2023-06-10T08:37:25;5.80;;;4.80;;
68438;SDS011;55421;51.600;5.718;2023-06-10T08:39:52;9.30;;;5.20;;
68438;SDS011;55421;51.600;5.718;2023-06-10T08:42:28;6.70;;;5.10;;
68438;SDS011;55421;51.600;5.718;2023-06-10T08:45:01;7.10;;;4.80;;
68438;SDS011;55421;51.600;5.718;2023-06-10T08:47:29;5.90;;;5.20;;
68438;SDS011;55421;51.600;5.718;2023-06-10T08:50:04;6.90;;;5.40;;
68438;SDS011;55421;51.600;5.718;2023-06-10T08:52:36;8.10;;;5.50;;
68438;SDS011;55421;51.600;5.718;2023-06-10T08:55:10;7.90;;;5.50;;
68438;SDS011;55421;51.600;5.718;2023-06-10T08:57:41;7.90;;;5.40;;
68438;SDS011;55421;51.600;5.718;2023-06-10T09:00:09;8.60;;;5.80;;
68438;SDS011;55421;51.600;5.718;2023-06-10T09:02:36;8.20;;;5.70;;
68438;SDS011;55421;51.600;5.718;2023-06-10T09:05:05;6.90;;;5.10;;
68438;SDS011;55421;51.600;5.718;2023-06-10T09:07:32;8.70;;;5.20;;
68438;SDS011;55421;51.600;5.718;2023-06-10T09:10:01;8.00;;;5.50;;
68438;SDS011;55421;51.600;5.718;2023-06-10T09:12:29;6.90;;;5.50;;
68438;SDS011;55421;51.600;5.718;2023-06-10T09:14:56;7.40;;;5.60;;
68438;SDS011;55421;51.600;5.718;2023-06-10T09:17:23;6.50;;;5.40;;
68438;SDS011;55421;51.600;5.718;2023-06-10T09:19:50;7.10;;;5.30;;
68438;SDS011;55421;51.600;5.718;2023-06-10T09:22:19;11.90;;;5.80;;
68438;SDS011;55421;51.600;5.718;2023-06-10T09:24:48;7.40;;;5.40;;
68438;SDS011;55421;51.600;5.718;2023-06-10T09:27:14;6.00;;;5.20;;
68438;SDS011;55421;51.600;5.718;2023-06-10T09:29:51;8.10;;;5.20;;
68438;SDS011;55421;51.600;5.718;2023-06-10T09:32:20;7.60;;;5.20;;
68438;SDS011;55421;51.600;5.718;2023-06-10T09:34:47;9.50;;;5.50;;
68438;SDS011;55421;51.600;5.718;2023-06-10T09:37:20;6.90;;;5.50;;
68438;SDS011;55421;51.600;5.718;2023-06-10T09:40:04;6.70;;;5.40;;
68438;SDS011;55421;51.600;5.718;2023-06-10T09:42:35;7.20;;;5.40;;
68438;SDS011;55421;51.600;5.718;2023-06-10T09:45:04;6.70;;;5.50;;
68438;SDS011;55421;51.600;5.718;2023-06-10T09:47:32;8.90;;;5.20;;
68438;SDS011;55421;51.600;5.718;2023-06-10T09:49:58;9.20;;;5.90;;
68438;SDS011;55421;51.600;5.718;2023-06-10T09:52:27;14.60;;;5.90;;
68438;SDS011;55421;51.600;5.718;2023-06-10T09:55:02;7.20;;;5.70;;
68438;SDS011;55421;51.600;5.718;2023-06-10T09:57:32;9.90;;;5.60;;
68438;SDS011;55421;51.600;5.718;2023-06-10T10:00:07;12.00;;;5.40;;
68438;SDS011;55421;51.600;5.718;2023-06-10T10:02:44;7.80;;;5.60;;
68438;SDS011;55421;51.600;5.718;2023-06-10T10:05:13;8.90;;;5.50;;
68438;SDS011;55421;51.600;5.718;2023-06-10T10:07:42;8.70;;;5.30;;
68438;SDS011;55421;51.600;5.718;2023-06-10T10:10:10;8.20;;;5.60;;
68438;SDS011;55421;51.600;5.718;2023-06-10T10:12:39;6.20;;;5.30;;
68438;SDS011;55421;51.600;5.718;2023-06-10T10:15:07;7.70;;;5.80;;
68438;SDS011;55421;51.600;5.718;2023-06-10T10:18:09;5.20;;;4.70;;
68438;SDS011;55421;51.600;5.718;2023-06-10T10:20:47;8.20;;;5.40;;
68438;SDS011;55421;51.600;5.718;2023-06-10T10:23:22;9.60;;;5.20;;
68438;SDS011;55421;51.600;5.718;2023-06-10T10:25:54;6.40;;;5.60;;
68438;SDS011;55421;51.600;5.718;2023-06-10T10:28:24;6.60;;;5.80;;
68438;SDS011;55421;51.600;5.718;2023-06-10T10:30:58;9.20;;;5.80;;
68438;SDS011;55421;51.600;5.718;2023-06-10T10:33:36;6.40;;;5.20;;
68438;SDS011;55421;51.600;5.718;2023-06-10T10:38:36;9.40;;;5.20;;
68438;SDS011;55421;51.600;5.718;2023-06-10T10:41:04;5.70;;;4.90;;
68438;SDS011;55421;51.600;5.718;2023-06-10T10:43:32;6.40;;;5.30;;
68438;SDS011;55421;51.600;5.718;2023-06-10T10:46:00;6.30;;;5.30;;
68438;SDS011;55421;51.600;5.718;2023-06-10T10:48:35;6.70;;;5.60;;
68438;SDS011;55421;51.600;5.718;2023-06-10T10:51:04;5.40;;;4.90;;
68438;SDS011;55421;51.600;5.718;2023-06-10T10:53:39;4.80;;;4.40;;
68438;SDS011;55421;51.600;5.718;2023-06-10T10:56:15;7.70;;;5.10;;
68438;SDS011;55421;51.600;5.718;2023-06-10T10:59:06;7.20;;;5.40;;
68438;SDS011;55421;51.600;5.718;2023-06-10T11:01:40;6.40;;;4.70;;
68438;SDS011;55421;51.600;5.718;2023-06-10T11:04:08;6.60;;;5.10;;
68438;SDS011;55421;51.600;5.718;2023-06-10T11:06:37;6.80;;;5.50;;
68438;SDS011;55421;51.600;5.718;2023-06-10T11:09:26;8.70;;;5.10;;
68438;SDS011;55421;51.600;5.718;2023-06-10T11:11:57;7.10;;;5.70;;
68438;SDS011;55421;51.600;5.718;2023-06-10T11:14:30;7.50;;;5.20;;
68438;SDS011;55421;51.600;5.718;2023-06-10T11:16:58;6.20;;;5.40;;
68438;SDS011;55421;51.600;5.718;2023-06-10T11:19:35;6.80;;;5.20;;
68438;SDS011;55421;51.600;5.718;2023-06-10T11:22:05;8.90;;;5.70;;
68438;SDS011;55421;51.600;5.718;2023-06-10T11:24:33;5.20;;;4.70;;
68438;SDS011;55421;51.600;5.718;2023-06-10T11:27:20;6.00;;;5.40;;
68438;SDS011;55421;51.600;5.718;2023-06-10T11:30:18;7.60;;;5.40;;
68438;SDS011;55421;51.600;5.718;2023-06-10T11:32:50;5.70;;;5.00;;
68438;SDS011;55421;51.600;5.718;2023-06-10T11:35:23;5.50;;;4.90;;
68438;SDS011;55421;51.600;5.718;2023-06-10T11:37:50;9.10;;;5.30;;
68438;SDS011;55421;51.600;5.718;2023-06-10T11:40:16;7.30;;;5.10;;
68438;SDS011;55421;51.600;5.718;2023-06-10T11:42:43;8.90;;;5.20;;
68438;SDS011;55421;51.600;5.718;2023-06-10T11:45:15;6.40;;;5.80;;
68438;SDS011;55421;51.600;5.718;2023-06-10T11:47:58;5.70;;;5.20;;
68438;SDS011;55421;51.600;5.718;2023-06-10T11:50:32;7.00;;;5.50;;
68438;SDS011;55421;51.600;5.718;2023-06-10T11:52:59;7.20;;;5.40;;
68438;SDS011;55421;51.600;5.718;2023-06-10T11:55:45;5.60;;;5.10;;
68438;SDS011;55421;51.600;5.718;2023-06-10T11:58:14;5.70;;;5.20;;
68438;SDS011;55421;51.600;5.718;2023-06-10T12:03:17;5.40;;;4.90;;
68438;SDS011;55421;51.600;5.718;2023-06-10T12:05:58;7.10;;;4.80;;
68438;SDS011;55421;51.600;5.718;2023-06-10T12:08:27;9.10;;;5.40;;
68438;SDS011;55421;51.600;5.718;2023-06-10T12:10:55;7.10;;;5.00;;
68438;SDS011;55421;51.600;5.718;2023-06-10T12:13:25;6.30;;;5.40;;
68438;SDS011;55421;51.600;5.718;2023-06-10T12:15:53;6.60;;;5.10;;
68438;SDS011;55421;51.600;5.718;2023-06-10T12:18:21;6.10;;;5.40;;
68438;SDS011;55421;51.600;5.718;2023-06-10T12:20:50;6.80;;;5.60;;
68438;SDS011;55421;51.600;5.718;2023-06-10T12:23:18;5.90;;;5.10;;
68438;SDS011;55421;51.600;5.718;2023-06-10T12:25:52;6.50;;;5.60;;
68438;SDS011;55421;51.600;5.718;2023-06-10T12:28:24;6.50;;;5.20;;
68438;SDS011;55421;51.600;5.718;2023-06-10T12:31:07;5.80;;;5.00;;
68438;SDS011;55421;51.600;5.718;2023-06-10T12:33:34;6.30;;;4.90;;
68438;SDS011;55421;51.600;5.718;2023-06-10T12:36:00;5.60;;;5.00;;
68438;SDS011;55421;51.600;5.718;2023-06-10T12:38:27;6.20;;;5.60;;
68438;SDS011;55421;51.600;5.718;2023-06-10T12:40:54;6.30;;;5.10;;
68438;SDS011;55421;51.600;5.718;2023-06-10T12:43:28;5.90;;;5.40;;
68438;SDS011;55421;51.600;5.718;2023-06-10T12:46:08;6.80;;;5.10;;
68438;SDS011;55421;51.600;5.718;2023-06-10T12:48:35;7.00;;;5.30;;
68438;SDS011;55421;51.600;5.718;2023-06-10T12:51:02;5.60;;;4.90;;
68438;SDS011;55421;51.600;5.718;2023-06-10T12:53:29;5.40;;;4.90;;
68438;SDS011;55421;51.600;5.718;2023-06-10T12:55:55;5.70;;;5.10;;
68438;SDS011;55421;51.600;5.718;2023-06-10T12:58:22;5.70;;;5.20;;
68438;SDS011;55421;51.600;5.718;2023-06-10T13:00:49;10.50;;;5.40;;
68438;SDS011;55421;51.600;5.718;2023-06-10T13:03:18;5.70;;;5.20;;
68438;SDS011;55421;51.600;5.718;2023-06-10T13:05:45;5.40;;;4.80;;
68438;SDS011;55421;51.600;5.718;2023-06-10T13:08:12;5.70;;;5.00;;
68438;SDS011;55421;51.600;5.718;2023-06-10T13:10:38;7.00;;;5.10;;
68438;SDS011;55421;51.600;5.718;2023-06-10T13:13:05;5.60;;;5.10;;
68438;SDS011;55421;51.600;5.718;2023-06-10T13:15:33;5.50;;;5.00;;
68438;SDS011;55421;51.600;5.718;2023-06-10T13:18:04;7.50;;;5.20;;
68438;SDS011;55421;51.600;5.718;2023-06-10T13:20:31;7.20;;;5.30;;
68438;SDS011;55421;51.600;5.718;2023-06-10T13:22:58;7.00;;;5.30;;
68438;SDS011;55421;51.600;5.718;2023-06-10T13:25:24;8.90;;;5.40;;
68438;SDS011;55421;51.600;5.718;2023-06-10T13:27:51;5.80;;;5.10;;
68438;SDS011;55421;51.600;5.718;2023-06-10T13:30:19;6.30;;;5.70;;
68438;SDS011;55421;51.600;5.718;2023-06-10T13:32:46;5.90;;;5.00;;
68438;SDS011;55421;51.600;5.718;2023-06-10T13:35:12;8.70;;;5.60;;
68438;SDS011;55421;51.600;5.718;2023-06-10T13:37:39;6.00;;;5.40;;
68438;SDS011;55421;51.600;5.718;2023-06-10T13:40:06;6.40;;;5.30;;
68438;SDS011;55421;51.600;5.718;2023-06-10T13:42:34;6.10;;;5.30;;
68438;SDS011;55421;51.600;5.718;2023-06-10T13:45:03;5.70;;;5.00;;
68438;SDS011;55421;51.600;5.718;2023-06-10T13:47:30;8.90;;;5.20;;
68438;SDS011;55421;51.600;5.718;2023-06-10T13:49:57;6.80;;;5.40;;
68438;SDS011;55421;51.600;5.718;2023-06-10T13:52:24;6.30;;;5.20;;
68438;SDS011;55421;51.600;5.718;2023-06-10T13:54:51;8.70;;;5.20;;
68438;SDS011;55421;51.600;5.718;2023-06-10T13:57:17;6.40;;;5.40;;
68438;SDS011;55421;51.600;5.718;2023-06-10T13:59:44;6.60;;;5.50;;
68438;SDS011;55421;51.600;5.718;2023-06-10T14:02:11;9.00;;;4.90;;
68438;SDS011;55421;51.600;5.718;2023-06-10T14:04:37;5.40;;;5.00;;
68438;SDS011;55421;51.600;5.718;2023-06-10T14:07:04;5.80;;;4.90;;
68438;SDS011;55421;51.600;5.718;2023-06-10T14:09:31;6.00;;;5.40;;
68438;SDS011;55421;51.600;5.718;2023-06-10T14:11:59;6.20;;;4.90;;
68438;SDS011;55421;51.600;5.718;2023-06-10T14:14:25;7.60;;;5.10;;
68438;SDS011;55421;51.600;5.718;2023-06-10T14:16:52;9.00;;;5.30;;
68438;SDS011;55421;51.600;5.718;2023-06-10T14:19:18;6.00;;;5.30;;
68438;SDS011;55421;51.600;5.718;2023-06-10T14:21:45;6.20;;;5.60;;
68438;SDS011;55421;51.600;5.718;2023-06-10T14:24:11;6.60;;;5.30;;
68438;SDS011;55421;51.600;5.718;2023-06-10T14:26:38;6.40;;;4.70;;
68438;SDS011;55421;51.600;5.718;2023-06-10T14:29:04;7.20;;;5.10;;
68438;SDS011;55421;51.600;5.718;2023-06-10T14:31:31;6.10;;;5.20;;
68438;SDS011;55421;51.600;5.718;2023-06-10T14:33:57;7.80;;;5.40;;
68438;SDS011;55421;51.600;5.718;2023-06-10T14:36:24;6.80;;;5.20;;
68438;SDS011;55421;51.600;5.718;2023-06-10T14:38:50;5.70;;;5.10;;
68438;SDS011;55421;51.600;5.718;2023-06-10T14:41:17;6.60;;;5.30;;
68438;SDS011;55421;51.600;5.718;2023-06-10T14:43:44;7.20;;;5.10;;
68438;SDS011;55421;51.600;5.718;2023-06-10T14:46:10;4.70;;;4.30;;
68438;SDS011;55421;51.600;5.718;2023-06-10T14:48:37;8.00;;;5.50;;
68438;SDS011;55421;51.600;5.718;2023-06-10T14:51:03;7.80;;;5.70;;
68438;SDS011;55421;51.600;5.718;2023-06-10T14:53:30;5.10;;;4.60;;
68438;SDS011;55421;51.600;5.718;2023-06-10T14:55:56;10.10;;;5.20;;
68438;SDS011;55421;51.600;5.718;2023-06-10T14:58:22;5.90;;;5.30;;